Mason Valley Wildlife Refuge, Nevada Weather observations

Data are for 10 minute period ending at time listed.
 Day   Time   Solar   Ave.   Ave.  Ave.  Vector  Max.   Baro.   Total    
  of    of     Rad.   Air    Rel.  Wind   Wind   Wind  Press.  Precip.   
Year   Day            Temp.  Hum.  Speed  Dir.   Gust                    
2014   (PST)  Kw/m2    F      %     mph   deg.    mph    mb.     in.     
-------------------------------------------------------------------------
 109    3:50   0.00   47.8    73    2.3   141     3.9   865.7    0.00 
 109    4:00   0.00   48.3    71    2.0   162     3.9   865.6    0.00 
 109    4:10   0.00   48.0    72    0.7   143     2.3   865.6    0.00 
 109    4:20   0.00   44.9    75    0.9   115     2.6   865.6    0.00 
 109    4:30   0.00   44.3    79    0.0     0     0.0   865.6    0.00 
 109    4:40   0.00   45.0    80    1.9   247     4.6   865.6    0.00 
 109    4:50   0.00   43.7    79    1.6   314     2.8   865.6    0.00 
 109    5:00   0.00   41.6    77    2.4    25     3.3   865.6    0.00 
 109    5:10   0.00   43.5    79    1.7   359     3.1   865.7    0.00 
 109    5:20   0.00   44.7    77    1.2   353     1.6   865.9    0.00 
 109    5:30   0.01   45.8    76    3.1     3     4.5   866.0    0.00 
 109    5:40   0.02   44.9    76    3.0   326     4.9   866.2    0.00 
 109    5:50   0.04   45.6    79    2.2   301     4.1   866.3    0.00 
 109    6:00   0.06   49.1    72    2.9   296     4.0   866.5    0.00 
 109    6:10   0.07   50.0    70    3.8   258     5.9   866.6    0.00 
 109    6:20   0.05   51.3    70    3.7   265     4.8   866.7    0.00 
 109    6:30   0.08   50.5    71    1.4   276     3.5   867.0    0.00 
 109    6:40   0.16   50.8    74    1.9   156     3.6   867.1    0.00 
 109    6:50   0.24   54.8    65    0.5   245     1.8   867.2    0.00 
 109    7:00   0.29   57.6    59    1.6   271     2.6   867.2    0.00 
 109    7:10   0.31   58.6    57    1.6   211     2.4   867.3    0.00 
 109    7:20   0.22   58.3    58    1.7   219     2.8   867.4    0.00 
 109    7:30   0.14   57.2    61    2.0   223     2.9   867.4    0.00 
 109    7:40   0.31   58.5    58    2.3   233     5.0   867.5    0.00 
 109    7:50   0.28   60.2    52    3.0   205     4.5   867.5    0.00 
 109    8:00   0.45   61.4    50    2.6   207     5.0   867.5    0.00 
 109    8:10   0.50   62.1    46    3.9   235     7.2   867.5    0.00 
 109    8:20   0.30   62.9    45    3.3   214     7.2   867.4    0.00 
 109    8:30   0.56   63.2    44    4.9   221     8.0   867.4    0.00 
 109    8:40   0.57   63.3    42    4.8   207     7.7   867.5    0.00 
 109    8:50   0.62   64.2    39    3.1   205     7.6   867.6    0.00 
 109    9:00   0.65   64.6    40    5.6   189     9.6   867.5    0.00 
 109    9:10   0.55   65.0    38    3.1   219     8.2   867.6    0.00 
 109    9:20   0.37   65.8    37    4.8   234     8.5   867.6    0.00 
 109    9:30   0.72   66.6    34    3.2   213     9.3   867.5    0.00 
 109    9:40   0.76   66.4    32    4.2   223    10.4   867.5    0.00 
 109    9:50   0.79   67.6    33    5.9   189    12.9   867.4    0.00 
 109   10:00   0.81   67.6    31    5.6   223     9.6   867.4    0.00 
 109   10:10   0.83   69.1    26    3.8   275     9.9   867.3    0.00 
 109   10:20   0.81   70.1    23    3.6   259     8.0   867.1    0.00 
 109   10:30   0.78   68.7    24    5.7   226    17.2   867.0    0.00 
 109   10:40   0.89   69.4    22    6.3   281    11.4   867.0    0.00 
 109   10:50   0.86   70.2    24    5.8   255     9.9   866.9    0.00 
 109   11:00   0.89   70.1    23    7.0   248    13.9   866.8    0.00 
 109   11:10   0.93   71.2    20    5.0   270     9.9   866.7    0.00 
 109   11:20   0.95   70.6    22    6.2   257    12.1   866.5    0.00 
 109   11:30   0.92   70.7    22    5.7   281    11.0   866.5    0.00 
 109   11:40   0.89   70.7    22    4.1   315    11.9   866.3    0.00 
 109   11:50   0.86   71.2    21    2.4   161     6.4   866.2    0.00 
 109   12:00   0.84   71.8    22    4.7   267     9.9   866.0    0.00 
 109   12:10   0.93   71.4    22    5.5   243    11.3   865.9    0.00 
 109   12:20   0.98   72.2    22    4.9   186     9.4   865.8    0.00 
 109   12:30   0.95   73.1    21    3.5   306     8.3   865.8    0.00 
 109   12:40   0.90   73.5    20    4.3   308    11.1   865.7    0.00 
 109   12:50   0.54   73.2    19    3.2   252    10.4   865.8    0.00 
 109   13:00   0.70   73.2    18    7.8   282    14.5   865.8    0.00 
 109   13:10   0.81   73.9    16    9.5   296    16.1   865.7    0.00 
 109   13:20   0.85   74.3    16    8.4   293    16.2   865.7    0.00 
 109   13:30   0.92   74.8    16    9.3   286    15.4   865.7    0.00 
 109   13:40   0.92   74.7    16    8.2   307    13.8   865.7    0.00 
 109   13:50   0.89   74.6    18    5.8   304    13.5   865.6    0.00 
 109   14:00   0.87   75.4    17    8.0   283    16.9   865.5    0.00 
 109   14:10   0.85   75.0    16    9.1   295    15.8   865.5    0.00 
 109   14:20   0.83   75.2    16    9.4   279    16.2   865.5    0.00 
 109   14:30   0.81   75.3    16    7.5   284    17.3   865.4    0.00 
 109   14:40   0.78   75.8    17    9.1   298    16.8   865.4    0.00 
 109   14:50   0.75   75.8    18   10.4   283    16.8   865.4    0.00 
 109   15:00   0.67   75.0    18   10.3   272    16.1   865.4    0.00 
 109   15:10   0.69   74.8    19    8.0   262    14.5   865.4    0.00 
 109   15:20   0.66   75.3    18    8.9   282    16.7   865.3    0.00 
 109   15:30   0.63   75.2    18   10.0   280    19.8   865.3    0.00 
 109   15:40   0.61   74.9    19   10.3   287    15.4   865.2    0.00 
 109   15:50   0.56   74.9    19   11.2   282    16.7   865.2    0.00 
 109   16:00   0.41   74.7    20   11.2   292    17.7   865.3    0.00 
 109   16:10   0.50   74.0    21   12.0   281    20.8   865.3    0.00 
 109   16:20   0.47   73.7    22    9.5   278    15.5   865.3    0.00 
 109   16:30   0.42   73.4    22   10.8   281    17.5   865.4    0.00 
 109   16:40   0.39   73.3    22    9.2   286    14.2   865.5    0.00 
 109   16:50   0.33   73.0    22    7.1   296    12.3   865.7    0.00 
 109   17:00   0.32   72.5    23    8.9   285    14.7   865.7    0.00 
 109   17:10   0.28   71.5    24    8.7   267    18.6   865.8    0.00 
 109   17:20   0.23   70.3    24    9.6   271    15.9   866.0    0.00 
 109   17:30   0.21   70.2    21    9.4   293    14.9   866.1    0.00 
 109   17:40   0.17   69.4    22    8.8   292    16.4   866.2    0.00 
 109   17:50   0.08   68.1    22    9.1   292    14.8   866.4    0.00 
 109   18:00   0.04   66.7    22    8.8   286    16.3   866.7    0.00 
 109   18:10   0.03   65.0    24    6.1   289    11.0   866.8    0.00 
 109   18:20   0.02   63.5    25    4.3   277     6.6   866.9    0.00 
 109   18:30   0.02   62.2    26    3.2   314     6.4   867.2    0.00 
 109   18:40   0.01   62.5    24    4.7   342     7.0   867.4    0.00 
 109   18:50   0.00   63.5    22    3.1   268     5.2   867.6    0.00 
 109   19:00   0.00   61.6    26    4.2   250     8.3   867.6    0.00 
 109   19:10   0.00   61.6    24    4.6   305    11.5   867.8    0.00 
 109   19:20   0.00   63.0    21    6.3   335    13.3   868.1    0.00 
 109   19:30   0.00   62.0    22    3.7   335     7.5   868.2    0.00 
 109   19:40   0.00   61.1    23    3.0     1     5.0   868.4    0.00 
 109   19:50   0.00   59.4    24    1.7    24     4.2   868.6    0.00 
 109   20:00   0.00   58.8    26    2.8   226     8.1   868.7    0.00 
 109   20:10   0.00   59.4    23    8.5   268    15.9   868.6    0.00 
 109   20:20   0.00   60.8    21    9.9   268    16.9   868.8    0.00 
 109   20:30   0.00   59.6    22    8.1   271    13.2   869.0    0.00 
 109   20:40   0.00   56.9    26    6.2   262     9.3   869.1    0.00 
 109   20:50   0.00   54.8    30    6.0   259     9.1   869.3    0.00 
 109   21:00   0.00   54.7    27    3.3   328     6.7   869.6    0.00 
 109   21:10   0.00   55.3    27    2.4   346     3.6   869.7    0.00 
 109   21:20   0.00   53.8    29    4.0   148     7.4   869.8    0.00 
 109   21:30   0.00   53.0    30    2.7   146     6.4   869.9    0.00 
 109   21:40   0.00   51.1    28    2.7    66     4.8   870.0    0.00 
 109   21:50   0.00   51.7    27    1.8    83     3.7   870.0    0.00 
 109   22:00   0.00   51.4    27    0.5    15     1.8   870.0    0.00 
 109   22:10   0.00   51.8    26    2.6    68     7.3   870.3    0.00 
 109   22:20   0.00   57.5    20    4.3    84     9.9   870.4    0.00 
 109   22:30   0.00   58.3    19    2.6   351     5.1   870.6    0.00 
 109   22:40   0.00   57.8    19    2.6   309     6.4   870.6    0.00 
 109   22:50   0.00   54.7    22    5.1   356     8.2   870.7    0.00 
 109   23:00   0.00   51.8    23    4.7     5     6.4   870.8    0.00 
 109   23:10   0.00   52.6    22    4.4   328     7.3   870.9    0.00 
 109   23:20   0.00   49.9    25    5.4    41     6.8   871.0    0.00 
 109   23:30   0.00   50.4    28    6.5    46     9.6   871.0    0.00 
 109   23:40   0.00   51.9    25    6.3     4     9.9   871.2    0.00 
 109   23:50   0.00   51.8    24    5.8     7     9.9   871.2    0.00 
 110    0:00   0.00   50.1    27    4.6    22     8.3   871.2    0.00 
 110    0:10   0.00   50.3    26    6.0   353     8.4   871.1    0.00 
 110    0:20   0.00   48.8    27    4.9   353     6.9   871.0    0.00 
 110    0:30   0.00   47.9    28    4.7   119     8.1   871.2    0.00 
 110    0:40   0.00   48.5    31    4.2   177     7.2   871.3    0.00 
 110    0:50   0.00   49.3    31    1.6   223     4.7   871.4    0.00 
 110    1:00   0.00   49.1    30    1.9   325     4.4   871.5    0.00 
 110    1:10   0.00   48.5    28    2.0   108     7.2   871.6    0.00 
 110    1:20   0.00   50.6    23    2.7    17     7.9   871.6    0.00 
 110    1:30   0.00   51.9    21    4.8   326     7.4   871.7    0.00 
 110    1:40   0.00   50.6    21    5.0   309     8.5   871.8    0.00 
 110    1:50   0.00   49.9    22    4.3   304     7.6   871.8    0.00 
 110    2:00   0.00   49.4    23    4.3   304     6.8   871.8    0.00 
 110    2:10   0.00   47.6    25    4.4   352     8.7   871.9    0.00 
 110    2:20   0.00   47.7    27    3.1   177     7.2   872.1    0.00 
 110    2:30   0.00   44.8    35    4.9   229     6.5   872.1    0.00 
 110    2:40   0.00   45.5    35    3.6   207     4.9   872.1    0.00 
 110    2:50   0.00   43.4    36    4.5   196     6.1   872.1    0.00 
 110    3:00   0.00   42.7    37    4.2   172     5.3   872.1    0.00 
 110    3:10   0.00   40.9    41    3.0   184     5.0   872.2    0.00 
 110    3:20   0.00   40.8    38    3.8   202     5.1   872.2    0.00 
 110    3:30   0.00   40.7    44    5.0   234     6.4   872.2    0.00 
 110    3:40   0.00   39.4    52    5.7   214     7.2   872.2    0.00 

Return to Mason Valley Wildlife Refuge graphs page.


Western Regional Climate Center,wrcc@dri.edu